sensor_id;sensor_type;location;lat;lon;timestamp;pressure;altitude;pressure_sealevel;temperature;humidity
37020;BME280;22932;52.442;16.896;2022-10-17T06:42:57;101420.55;;;14.25;88.60
37020;BME280;22932;52.442;16.896;2022-10-17T06:45:26;101424.44;;;14.30;88.56
37020;BME280;22932;52.442;16.896;2022-10-17T06:47:56;101427.34;;;14.38;88.48
37020;BME280;22932;52.442;16.896;2022-10-17T06:50:25;101429.55;;;14.43;88.52
37020;BME280;22932;52.442;16.896;2022-10-17T06:52:54;101426.65;;;14.50;88.42
37020;BME280;22932;52.442;16.896;2022-10-17T06:55:23;101422.64;;;14.54;88.20
37020;BME280;22932;52.442;16.896;2022-10-17T06:57:54;101423.61;;;14.59;88.26
37020;BME280;22932;52.442;16.896;2022-10-17T07:00:22;101429.45;;;14.67;88.32
37020;BME280;22932;52.442;16.896;2022-10-17T07:02:53;101426.94;;;14.74;88.38
37020;BME280;22932;52.442;16.896;2022-10-17T07:05:22;101431.94;;;14.81;88.28
37020;BME280;22932;52.442;16.896;2022-10-17T07:07:52;101437.18;;;14.87;88.09
37020;BME280;22932;52.442;16.896;2022-10-17T07:10:21;101434.26;;;14.95;88.16
37020;BME280;22932;52.442;16.896;2022-10-17T16:25:28;101263.88;;;20.95;60.71
37020;BME280;22932;52.442;16.896;2022-10-17T16:27:59;101263.20;;;20.90;60.79
37020;BME280;22932;52.442;16.896;2022-10-17T16:30:28;101266.34;;;20.86;60.84
37020;BME280;22932;52.442;16.896;2022-10-17T16:32:58;101270.23;;;20.80;61.03
37020;BME280;22932;52.442;16.896;2022-10-17T16:35:28;101268.39;;;20.76;61.29
37020;BME280;22932;52.442;16.896;2022-10-17T16:37:58;101270.48;;;20.72;61.24
37020;BME280;22932;52.442;16.896;2022-10-17T16:40:27;101271.35;;;20.68;61.43
37020;BME280;22932;52.442;16.896;2022-10-17T16:42:57;101275.42;;;20.65;61.48
37020;BME280;22932;52.442;16.896;2022-10-17T16:45:26;101275.41;;;20.62;61.55
37020;BME280;22932;52.442;16.896;2022-10-17T16:47:56;101272.11;;;20.59;61.77
37020;BME280;22932;52.442;16.896;2022-10-17T16:50:25;101265.28;;;20.56;61.86
37020;BME280;22932;52.442;16.896;2022-10-17T16:52:54;101265.64;;;20.53;61.90
37020;BME280;22932;52.442;16.896;2022-10-17T16:55:23;101270.13;;;20.51;62.07
37020;BME280;22932;52.442;16.896;2022-10-17T16:57:53;101273.85;;;20.47;62.25
37020;BME280;22932;52.442;16.896;2022-10-17T17:00:22;101269.99;;;20.44;62.21
37020;BME280;22932;52.442;16.896;2022-10-17T17:02:51;101270.23;;;20.43;62.33
37020;BME280;22932;52.442;16.896;2022-10-17T17:05:20;101274.91;;;20.40;62.31
37020;BME280;22932;52.442;16.896;2022-10-17T17:07:50;101273.66;;;20.37;62.45
37020;BME280;22932;52.442;16.896;2022-10-17T17:10:19;101270.75;;;20.32;62.53
37020;BME280;22932;52.442;16.896;2022-10-17T17:12:48;101271.85;;;20.27;62.60
37020;BME280;22932;52.442;16.896;2022-10-17T17:15:17;101272.95;;;20.23;62.80
37020;BME280;22932;52.442;16.896;2022-10-17T17:17:47;101267.08;;;20.18;62.95
37020;BME280;22932;52.442;16.896;2022-10-17T17:20:16;101266.98;;;20.13;63.00
37020;BME280;22932;52.442;16.896;2022-10-17T17:22:45;101269.10;;;20.09;63.14
37020;BME280;22932;52.442;16.896;2022-10-17T17:25:15;101271.29;;;20.04;63.28
37020;BME280;22932;52.442;16.896;2022-10-17T17:27:45;101273.73;;;20.01;63.39
37020;BME280;22932;52.442;16.896;2022-10-17T17:30:14;101276.20;;;19.97;63.47
37020;BME280;22932;52.442;16.896;2022-10-17T17:32:43;101278.27;;;19.93;63.56
37020;BME280;22932;52.442;16.896;2022-10-17T17:35:13;101278.61;;;19.89;63.73
37020;BME280;22932;52.442;16.896;2022-10-17T17:37:42;101276.73;;;19.86;63.70
37020;BME280;22932;52.442;16.896;2022-10-17T17:40:12;101279.20;;;19.82;64.05
37020;BME280;22932;52.442;16.896;2022-10-17T17:42:42;101277.56;;;19.79;64.06
37020;BME280;22932;52.442;16.896;2022-10-17T17:45:11;101276.96;;;19.76;64.16
37020;BME280;22932;52.442;16.896;2022-10-17T17:47:41;101274.45;;;19.73;64.14
37020;BME280;22932;52.442;16.896;2022-10-17T17:50:10;101275.97;;;19.71;64.30
37020;BME280;22932;52.442;16.896;2022-10-17T17:52:40;101273.65;;;19.67;64.30
37020;BME280;22932;52.442;16.896;2022-10-17T17:55:12;101270.24;;;19.63;64.41
37020;BME280;22932;52.442;16.896;2022-10-17T17:57:42;101277.52;;;19.58;64.61
37020;BME280;22932;52.442;16.896;2022-10-17T18:00:13;101272.75;;;19.54;64.51
37020;BME280;22932;52.442;16.896;2022-10-17T18:02:42;101267.36;;;19.49;64.74
37020;BME280;22932;52.442;16.896;2022-10-17T18:05:12;101273.64;;;19.45;64.77
37020;BME280;22932;52.442;16.896;2022-10-17T18:07:41;101270.64;;;19.41;64.90
37020;BME280;22932;52.442;16.896;2022-10-17T18:10:11;101271.69;;;19.36;65.06
37020;BME280;22932;52.442;16.896;2022-10-17T18:12:40;101263.23;;;19.32;65.07
37020;BME280;22932;52.442;16.896;2022-10-17T18:15:10;101263.98;;;19.27;65.21
37020;BME280;22932;52.442;16.896;2022-10-17T18:17:38;101260.33;;;19.22;65.25
37020;BME280;22932;52.442;16.896;2022-10-17T18:20:09;101263.16;;;19.17;65.51
37020;BME280;22932;52.442;16.896;2022-10-17T18:22:38;101264.36;;;19.11;65.56
37020;BME280;22932;52.442;16.896;2022-10-17T18:25:08;101266.46;;;19.05;65.63
37020;BME280;22932;52.442;16.896;2022-10-17T18:27:37;101266.30;;;19.00;65.85
37020;BME280;22932;52.442;16.896;2022-10-17T18:30:09;101264.34;;;18.95;65.89
37020;BME280;22932;52.442;16.896;2022-10-17T18:32:38;101263.05;;;18.90;66.11
37020;BME280;22932;52.442;16.896;2022-10-17T18:35:08;101265.04;;;18.86;66.29
37020;BME280;22932;52.442;16.896;2022-10-17T18:37:37;101260.56;;;18.82;66.36
37020;BME280;22932;52.442;16.896;2022-10-17T18:40:09;101264.30;;;18.78;66.49
37020;BME280;22932;52.442;16.896;2022-10-17T18:42:40;101263.40;;;18.74;66.59
37020;BME280;22932;52.442;16.896;2022-10-17T18:45:10;101264.44;;;18.70;66.74
37020;BME280;22932;52.442;16.896;2022-10-17T18:47:43;101262.86;;;18.66;66.86
37020;BME280;22932;52.442;16.896;2022-10-17T18:50:14;101261.33;;;18.63;67.10
37020;BME280;22932;52.442;16.896;2022-10-17T18:52:43;101261.95;;;18.60;67.14
37020;BME280;22932;52.442;16.896;2022-10-17T18:55:13;101256.69;;;18.56;67.19
37020;BME280;22932;52.442;16.896;2022-10-17T18:57:42;101258.84;;;18.51;67.29
37020;BME280;22932;52.442;16.896;2022-10-17T19:00:13;101255.48;;;18.47;67.34
37020;BME280;22932;52.442;16.896;2022-10-17T19:02:43;101260.41;;;18.44;67.46
37020;BME280;22932;52.442;16.896;2022-10-17T19:05:12;101259.70;;;18.40;67.53
37020;BME280;22932;52.442;16.896;2022-10-17T19:07:42;101259.90;;;18.37;67.61
37020;BME280;22932;52.442;16.896;2022-10-17T19:10:11;101258.05;;;18.34;67.67
37020;BME280;22932;52.442;16.896;2022-10-17T19:12:40;101256.91;;;18.33;67.73
37020;BME280;22932;52.442;16.896;2022-10-17T19:15:10;101254.19;;;18.31;67.69
37020;BME280;22932;52.442;16.896;2022-10-17T19:17:39;101255.20;;;18.29;67.79
37020;BME280;22932;52.442;16.896;2022-10-17T19:20:10;101250.11;;;18.28;67.66
37020;BME280;22932;52.442;16.896;2022-10-17T19:22:40;101248.88;;;18.24;67.69
37020;BME280;22932;52.442;16.896;2022-10-17T19:25:10;101248.27;;;18.22;67.72
37020;BME280;22932;52.442;16.896;2022-10-17T19:27:39;101244.94;;;18.19;67.78
37020;BME280;22932;52.442;16.896;2022-10-17T19:30:10;101247.09;;;18.16;67.78
37020;BME280;22932;52.442;16.896;2022-10-17T19:32:39;101244.90;;;18.15;67.81
37020;BME280;22932;52.442;16.896;2022-10-17T19:35:10;101242.17;;;18.13;67.96
37020;BME280;22932;52.442;16.896;2022-10-17T19:37:39;101245.55;;;18.12;67.87
37020;BME280;22932;52.442;16.896;2022-10-17T19:40:11;101249.73;;;18.10;67.89
37020;BME280;22932;52.442;16.896;2022-10-17T19:42:40;101252.81;;;18.08;67.93
37020;BME280;22932;52.442;16.896;2022-10-17T22:14:42;101302.40;;;16.60;70.54
37020;BME280;22932;52.442;16.896;2022-10-17T22:17:11;101299.28;;;16.59;70.50
37020;BME280;22932;52.442;16.896;2022-10-17T22:19:41;101298.63;;;16.56;70.63
37020;BME280;22932;52.442;16.896;2022-10-17T22:22:10;101293.59;;;16.54;70.56
37020;BME280;22932;52.442;16.896;2022-10-17T22:24:39;101293.81;;;16.52;70.67
37020;BME280;22932;52.442;16.896;2022-10-17T22:27:08;101292.08;;;16.49;70.76
37020;BME280;22932;52.442;16.896;2022-10-17T22:29:42;101290.80;;;16.45;70.66
37020;BME280;22932;52.442;16.896;2022-10-17T22:32:11;101288.70;;;16.43;70.86
37020;BME280;22932;52.442;16.896;2022-10-17T22:34:40;101293.23;;;16.39;70.93
37020;BME280;22932;52.442;16.896;2022-10-17T22:37:09;101292.02;;;16.39;70.91
37020;BME280;22932;52.442;16.896;2022-10-17T22:39:39;101294.30;;;16.38;71.08
37020;BME280;22932;52.442;16.896;2022-10-17T22:42:08;101296.63;;;16.36;71.00
37020;BME280;22932;52.442;16.896;2022-10-17T22:44:37;101297.47;;;16.37;71.21
37020;BME280;22932;52.442;16.896;2022-10-17T22:47:06;101297.78;;;16.38;71.20
37020;BME280;22932;52.442;16.896;2022-10-17T22:49:35;101292.86;;;16.38;71.24
37020;BME280;22932;52.442;16.896;2022-10-17T22:52:05;101291.02;;;16.38;71.26
37020;BME280;22932;52.442;16.896;2022-10-17T23:05:44;101297.54;;;16.31;71.27
37020;BME280;22932;52.442;16.896;2022-10-17T23:08:14;101297.66;;;16.30;71.35
37020;BME280;22932;52.442;16.896;2022-10-17T23:10:45;101295.71;;;16.28;71.27
37020;BME280;22932;52.442;16.896;2022-10-17T23:13:15;101295.49;;;16.24;71.39
37020;BME280;22932;52.442;16.896;2022-10-17T23:15:55;101293.42;;;16.20;71.24
37020;BME280;22932;52.442;16.896;2022-10-17T23:18:25;101294.45;;;16.17;71.44
37020;BME280;22932;52.442;16.896;2022-10-17T23:20:55;101294.14;;;16.16;71.49
37020;BME280;22932;52.442;16.896;2022-10-17T23:23:29;101291.46;;;16.16;71.59
37020;BME280;22932;52.442;16.896;2022-10-17T23:31:38;101297.00;;;16.11;71.60
37020;BME280;22932;52.442;16.896;2022-10-17T23:36:55;101292.64;;;16.10;71.78
37020;BME280;22932;52.442;16.896;2022-10-17T23:39:25;101292.30;;;16.10;71.93
37020;BME280;22932;52.442;16.896;2022-10-17T23:41:56;101289.23;;;16.09;72.04
37020;BME280;22932;52.442;16.896;2022-10-17T23:44:25;101292.60;;;16.08;71.90
37020;BME280;22932;52.442;16.896;2022-10-17T23:46:54;101296.52;;;16.03;71.79
37020;BME280;22932;52.442;16.896;2022-10-17T23:49:23;101296.14;;;15.98;71.97
37020;BME280;22932;52.442;16.896;2022-10-17T23:51:53;101295.95;;;15.96;72.08
37020;BME280;22932;52.442;16.896;2022-10-17T23:54:22;101296.43;;;15.95;72.25
37020;BME280;22932;52.442;16.896;2022-10-17T23:56:51;101296.44;;;15.95;72.41
37020;BME280;22932;52.442;16.896;2022-10-17T23:59:20;101296.08;;;15.95;72.36
